createdAt,value
2023-04-28T00:00:33.589Z,98410.53
2023-04-28T00:03:35.722Z,98411.44
2023-04-28T00:06:37.442Z,98409.59
2023-04-28T00:09:40.935Z,98417.59
2023-04-28T00:12:42.487Z,98404.34
2023-04-28T00:15:46.308Z,98404.38
2023-04-28T00:18:47.898Z,98401.69
2023-04-28T00:21:49.481Z,98396.31
2023-04-28T00:24:51.148Z,98386.50
2023-04-28T00:27:52.840Z,98381.16
2023-04-28T00:30:56.012Z,98374.00
2023-04-28T00:33:57.677Z,98365.09
2023-04-28T00:36:59.284Z,98361.59
2023-04-28T00:40:00.908Z,98368.75
2023-04-28T00:43:02.960Z,98365.97
2023-04-28T00:46:06.536Z,98361.53
2023-04-28T00:49:08.478Z,98350.97
2023-04-28T00:52:10.644Z,98340.41
2023-04-28T00:55:14.826Z,98342.16
2023-04-28T00:58:16.630Z,98343.00
2023-04-28T01:01:19.867Z,98336.84
2023-04-28T01:04:21.703Z,98338.69
2023-04-28T01:07:24.024Z,98335.22
2023-04-28T01:10:25.678Z,98331.66
2023-04-28T01:13:28.301Z,98330.94
2023-04-28T01:16:32.765Z,98323.09
2023-04-28T01:19:34.704Z,98321.50
2023-04-28T01:22:39.174Z,98318.91
2023-04-28T01:25:43.130Z,98315.31
2023-04-28T01:28:45.502Z,98319.00
2023-04-28T01:31:47.901Z,98323.44
2023-04-28T01:34:49.928Z,98317.28
2023-04-28T01:37:51.478Z,98311.28
2023-04-28T01:40:56.690Z,98310.50
2023-04-28T01:43:58.358Z,98308.84
2023-04-28T01:47:00.117Z,98306.19
2023-04-28T01:50:02.025Z,98302.72
2023-04-28T01:53:04.370Z,98293.00
2023-04-28T01:56:08.884Z,98293.91
2023-04-28T01:59:11.246Z,98291.19
2023-04-28T02:02:12.917Z,98282.31
2023-04-28T02:05:14.610Z,98277.00
2023-04-28T02:08:16.330Z,98278.97
2023-04-28T02:11:19.426Z,98274.47
2023-04-28T02:14:21.121Z,98274.47
2023-04-28T02:17:25.607Z,98263.75
2023-04-28T02:20:27.720Z,98258.38
2023-04-28T02:23:29.579Z,98249.41
2023-04-28T02:26:33.667Z,98250.28
2023-04-28T02:29:35.215Z,98241.59
2023-04-28T02:32:36.933Z,98238.03
2023-04-28T02:35:38.555Z,98240.59
2023-04-28T02:38:41.874Z,98245.72
2023-04-28T02:41:44.820Z,98230.72
2023-04-28T02:44:46.391Z,98223.75
2023-04-28T02:47:48.721Z,98234.22
2023-04-28T02:50:52.966Z,98234.09
2023-04-28T02:53:55.385Z,98233.25
2023-04-28T02:56:59.787Z,98233.25
2023-04-28T03:00:01.467Z,98225.28
2023-04-28T03:03:09.406Z,98227.94
2023-04-28T03:06:11.657Z,98223.56
2023-04-28T03:09:13.958Z,98220.91
2023-04-28T03:12:17.593Z,98219.06
2023-04-28T03:15:21.177Z,98211.97
2023-04-28T03:18:23.281Z,98215.59
2023-04-28T03:21:27.977Z,98205.84
2023-04-28T03:24:30.154Z,98207.59
2023-04-28T03:27:33.288Z,98200.50
2023-04-28T03:30:35.013Z,98193.53
2023-04-28T03:33:39.815Z,98190.00
2023-04-28T03:36:41.779Z,98195.44
2023-04-28T03:39:51.233Z,98183.84
2023-04-28T03:42:54.374Z,98170.69
2023-04-28T03:46:04.469Z,98168.91
2023-04-28T03:49:06.564Z,98178.81
2023-04-28T03:52:08.222Z,98177.09
2023-04-28T03:55:10.730Z,98171.72
2023-04-28T03:58:16.746Z,98174.28
2023-04-28T04:01:21.240Z,98166.25
2023-04-28T04:04:24.041Z,98161.94
2023-04-28T04:07:26.412Z,98164.59
2023-04-28T04:10:28.413Z,98172.50
2023-04-28T04:13:31.433Z,98170.75
2023-04-28T04:16:33.208Z,98168.97
2023-04-28T04:19:34.812Z,98166.25
2023-04-28T04:22:36.857Z,98164.41
2023-04-28T04:25:38.401Z,98155.66
2023-04-28T04:28:41.711Z,98159.03
2023-04-28T04:31:45.575Z,98152.88
2023-04-28T04:34:47.674Z,98154.66
2023-04-28T04:37:49.423Z,98152.72
2023-04-28T04:40:51.100Z,98158.88
2023-04-28T04:43:54.388Z,98156.25
2023-04-28T04:47:02.644Z,98154.53
2023-04-28T04:50:06.128Z,98155.34
2023-04-28T04:53:10.626Z,98156.16
2023-04-28T04:56:15.260Z,98153.50
2023-04-28T04:59:19.365Z,98150.72
2023-04-28T05:02:36.651Z,98141.84
2023-04-28T05:05:40.521Z,98139.97
2023-04-28T05:08:54.293Z,98139.97
2023-04-28T05:11:56.134Z,98136.28
2023-04-28T05:14:59.212Z,98140.59
2023-04-28T05:18:06.609Z,98137.94
2023-04-28T05:21:08.591Z,98122.81
2023-04-28T05:24:10.345Z,98122.66
2023-04-28T05:27:11.869Z,98130.34
2023-04-28T05:30:15.905Z,98132.06
2023-04-28T05:33:18.009Z,98131.09
2023-04-28T05:36:19.645Z,98131.69
2023-04-28T05:39:21.587Z,98124.28
2023-04-28T05:42:23.340Z,98116.06
2023-04-28T05:45:26.704Z,98105.13
2023-04-28T05:48:28.700Z,98100.41
2023-04-28T05:51:30.560Z,98101.69
2023-04-28T05:54:34.373Z,98100.47
2023-04-28T05:57:45.746Z,98105.50
2023-04-28T06:00:55.455Z,98108.09
2023-04-28T06:03:58.888Z,98118.72
2023-04-28T06:07:01.250Z,98109.69
2023-04-28T06:10:03.027Z,98110.28
2023-04-28T06:13:06.469Z,98105.66
2023-04-28T06:16:09.519Z,98109.53
2023-04-28T06:19:11.565Z,98106.44
2023-04-28T06:22:13.311Z,98107.91
2023-04-28T06:25:15.044Z,98104.03
2023-04-28T06:28:20.813Z,98101.94
2023-04-28T06:31:23.794Z,98110.66
2023-04-28T06:34:28.951Z,98110.75
2023-04-28T06:37:31.659Z,98111.22
2023-04-28T06:40:33.339Z,98094.41
2023-04-28T06:43:36.746Z,98090.56
2023-04-28T06:46:50.796Z,98094.78
2023-04-28T06:49:52.528Z,98095.31
2023-04-28T06:52:54.266Z,98088.84
2023-04-28T06:55:56.621Z,98088.19
2023-04-28T06:58:59.055Z,98082.00
2023-04-28T07:02:02.232Z,98085.38
2023-04-28T07:05:04.955Z,98079.91
2023-04-28T07:08:06.798Z,98077.88
2023-04-28T07:11:08.735Z,98072.47
2023-04-28T07:14:10.395Z,98076.88
2023-04-28T07:17:13.489Z,98076.16
2023-04-28T07:20:15.127Z,98063.63
2023-04-28T07:23:16.740Z,98061.63
2023-04-28T07:26:18.257Z,98049.69
2023-04-28T07:29:20.539Z,98061.81
2023-04-28T07:32:24.282Z,98053.56
2023-04-28T07:35:26.401Z,98059.56
2023-04-28T07:38:28.184Z,98069.25
2023-04-28T07:41:30.027Z,98065.97
2023-04-28T07:44:31.901Z,98074.44
2023-04-28T07:47:35.364Z,98076.88
2023-04-28T07:50:37.693Z,98068.97
2023-04-28T07:53:39.222Z,98065.22
2023-04-28T07:56:41.098Z,98068.66
2023-04-28T07:59:42.901Z,98065.13
2023-04-28T08:02:45.898Z,98046.41
2023-04-28T08:05:47.852Z,98041.00
2023-04-28T08:08:49.711Z,98040.16
2023-04-28T08:11:51.289Z,98042.47
2023-04-28T08:14:52.898Z,98041.31
2023-04-28T08:17:55.946Z,98049.22
2023-04-28T08:20:57.698Z,98045.47
2023-04-28T08:23:59.212Z,98047.81
2023-04-28T08:27:02.955Z,98048.34
2023-04-28T08:30:05.318Z,98039.00
2023-04-28T08:33:08.890Z,98044.88
2023-04-28T08:36:12.031Z,98036.78
2023-04-28T08:39:14.083Z,98038.38
2023-04-28T08:42:16.590Z,98036.22
2023-04-28T08:45:18.193Z,98032.28
2023-04-28T08:48:22.115Z,98037.59
2023-04-28T08:51:26.136Z,98031.94
2023-04-28T08:54:30.653Z,98030.44
2023-04-28T08:57:34.963Z,98026.75
2023-04-28T09:00:37.051Z,98012.47
2023-04-28T09:03:40.401Z,98017.22
2023-04-28T09:06:41.967Z,98015.31
2023-04-28T09:09:45.670Z,98024.44
2023-04-28T09:12:47.982Z,98011.88
2023-04-28T09:15:50.994Z,98009.97
2023-04-28T09:18:58.195Z,98011.34
2023-04-28T09:22:02.147Z,98003.56
2023-04-28T09:25:11.353Z,97998.19
2023-04-28T09:28:20.243Z,97997.84
2023-04-28T09:31:25.906Z,98008.34
2023-04-28T09:34:42.318Z,98001.28
2023-04-28T09:37:44.186Z,98001.09
2023-04-28T09:41:03.833Z,98003.66
2023-04-28T09:44:12.564Z,98004.91
2023-04-28T09:47:21.058Z,98010.59
2023-04-28T09:50:24.075Z,97999.72
2023-04-28T09:53:26.220Z,98009.19
2023-04-28T09:56:29.708Z,98008.59
2023-04-28T09:59:32.219Z,98016.13
2023-04-28T10:02:43.325Z,98003.88
2023-04-28T10:05:47.394Z,98013.97
2023-04-28T10:08:50.209Z,98007.53
2023-04-28T10:11:52.483Z,98004.53
2023-04-28T10:14:54.834Z,97999.63
2023-04-28T10:17:57.172Z,97999.91
2023-04-28T10:21:01.028Z,97992.75
2023-04-28T10:24:09.435Z,97988.28
2023-04-28T10:27:11.666Z,97985.03
2023-04-28T10:33:26.924Z,97986.22
2023-04-28T10:36:53.709Z,97979.94
2023-04-28T10:40:14.492Z,97979.16
2023-04-28T10:43:33.890Z,97980.44
2023-04-28T10:47:00.135Z,97977.00
2023-04-28T10:50:09.025Z,97968.84
2023-04-28T10:53:12.018Z,97964.78
2023-04-28T10:56:18.555Z,97962.13
2023-04-28T10:59:25.229Z,97959.34
2023-04-28T11:02:43.964Z,97963.13
2023-04-28T11:06:01.458Z,97958.94
2023-04-28T11:09:24.350Z,97954.53
2023-04-28T11:12:26.694Z,97941.47
2023-04-28T11:15:28.394Z,97941.53
2023-04-28T11:18:31.976Z,97946.16
2023-04-28T11:21:33.737Z,97952.22
2023-04-28T11:24:36.746Z,97948.41
2023-04-28T11:27:40.779Z,97952.22
2023-04-28T11:30:42.461Z,97961.09
2023-04-28T11:33:44.932Z,97964.28
2023-04-28T11:36:46.524Z,97965.59
2023-04-28T11:39:50.178Z,97961.56
2023-04-28T11:42:51.795Z,97962.69
2023-04-28T11:45:53.434Z,97959.59
2023-04-28T11:49:02.499Z,97963.53
2023-04-28T11:52:04.675Z,97947.50
2023-04-28T11:55:08.419Z,97943.38
2023-04-28T11:58:19.611Z,97941.75
2023-04-28T12:01:21.323Z,97931.19
2023-04-28T12:04:32.724Z,97938.03
2023-04-28T12:07:42.425Z,97933.22
2023-04-28T12:11:05.397Z,97930.78
2023-04-28T12:14:07.718Z,97928.06
2023-04-28T12:17:23.033Z,97923.13
2023-04-28T12:20:35.407Z,97924.81
2023-04-28T12:23:37.003Z,97917.28
2023-04-28T12:26:40.390Z,97923.19
2023-04-28T12:29:42.901Z,97920.22
2023-04-28T12:32:44.798Z,97918.59
2023-04-28T12:35:47.028Z,97913.84
2023-04-28T12:38:51.730Z,97909.03
2023-04-28T12:41:59.284Z,97910.00
2023-04-28T12:45:00.909Z,97905.94
2023-04-28T12:48:02.739Z,97906.41
2023-04-28T12:51:04.308Z,97908.38
2023-04-28T12:54:06.581Z,97909.25
2023-04-28T12:57:09.568Z,97904.13
2023-04-28T13:00:14.098Z,97901.59
2023-04-28T13:03:16.390Z,97903.88
2023-04-28T13:06:18.131Z,97904.34
2023-04-28T13:09:19.892Z,97898.03
2023-04-28T13:12:24.475Z,97893.88
2023-04-28T13:15:27.269Z,97897.00
2023-04-28T13:18:30.063Z,97901.28
2023-04-28T13:21:32.214Z,97891.53
2023-04-28T13:24:34.045Z,97891.38
2023-04-28T13:27:37.833Z,97892.88
2023-04-28T13:30:39.993Z,97893.72
2023-04-28T13:33:41.582Z,97890.53
2023-04-28T13:36:43.745Z,97889.34
2023-04-28T13:39:45.387Z,97886.75
2023-04-28T13:42:48.279Z,97878.97
2023-04-28T13:45:50.313Z,97874.25
2023-04-28T13:48:51.870Z,97868.03
2023-04-28T13:51:53.641Z,97874.53
2023-04-28T13:54:55.585Z,97871.75
2023-04-28T13:58:02.682Z,97866.81
2023-04-28T14:01:04.543Z,97863.53
2023-04-28T14:04:07.010Z,97861.84
2023-04-28T14:07:09.845Z,97865.81
2023-04-28T14:10:12.026Z,97861.84
2023-04-28T14:13:15.076Z,97861.41
2023-04-28T14:16:16.974Z,97859.16
2023-04-28T14:19:18.938Z,97851.97
2023-04-28T14:22:20.597Z,97851.78
2023-04-28T14:25:22.214Z,97850.47
2023-04-28T14:28:25.141Z,97847.69
2023-04-28T14:31:27.117Z,97842.78
2023-04-28T14:34:28.779Z,97837.94
2023-04-28T14:37:31.052Z,97838.47
2023-04-28T14:40:33.574Z,97838.91
2023-04-28T14:43:36.618Z,97826.38
2023-04-28T14:46:38.336Z,97826.69
2023-04-28T14:49:40.315Z,97824.09
2023-04-28T14:52:42.498Z,97822.41
2023-04-28T14:55:44.883Z,97825.06
2023-04-28T14:58:48.928Z,97818.97
2023-04-28T15:01:51.726Z,97817.56
2023-04-28T15:04:54.219Z,97818.97
2023-04-28T15:07:56.315Z,97822.16
2023-04-28T15:10:57.977Z,97818.75
2023-04-28T15:14:01.063Z,97818.09
2023-04-28T15:17:03.977Z,97807.91
2023-04-28T15:20:06.616Z,97808.88
2023-04-28T15:23:09.981Z,97799.38
2023-04-28T15:26:11.656Z,97801.38
2023-04-28T15:29:14.722Z,97806.31
2023-04-28T15:32:17.377Z,97800.63
2023-04-28T15:35:19.043Z,97798.19
2023-04-28T15:38:20.697Z,97806.09
2023-04-28T15:41:22.371Z,97805.34
2023-04-28T15:44:27.620Z,97805.47
2023-04-28T15:47:33.117Z,97799.88
2023-04-28T15:50:36.076Z,97799.88
2023-04-28T15:53:39.528Z,97796.47
2023-04-28T15:56:41.134Z,97806.53
2023-04-28T15:59:44.685Z,97809.41
2023-04-28T16:02:46.697Z,97808.66
2023-04-28T16:05:49.521Z,97808.53
2023-04-28T16:08:51.142Z,97818.88
2023-04-28T16:11:52.965Z,97805.84
2023-04-28T16:14:56.221Z,97803.41
2023-04-28T16:17:58.040Z,97802.34
2023-04-28T16:21:00.244Z,97797.44
2023-04-28T16:24:03.054Z,97791.56
2023-04-28T16:27:04.670Z,97796.69
2023-04-28T16:30:08.777Z,97795.94
2023-04-28T16:33:10.596Z,97795.59
2023-04-28T16:36:12.383Z,97798.69
2023-04-28T16:39:15.331Z,97796.47
2023-04-28T16:42:17.042Z,97797.50
2023-04-28T16:45:21.476Z,97786.03
2023-04-28T16:48:23.665Z,97796.75
2023-04-28T16:51:25.267Z,97788.09
2023-04-28T16:54:28.182Z,97788.09
2023-04-28T16:57:30.082Z,97781.88
2023-04-28T17:00:33.166Z,97786.38
2023-04-28T17:03:41.634Z,97782.72
2023-04-28T17:06:43.712Z,97784.66
2023-04-28T17:09:46.268Z,97790.00
2023-04-28T17:12:47.946Z,97774.81
2023-04-28T17:15:55.491Z,97776.63
2023-04-28T17:18:57.017Z,97771.16
2023-04-28T17:21:58.529Z,97774.69
2023-04-28T17:25:00.193Z,97771.91
2023-04-28T17:28:02.000Z,97770.09
2023-04-28T17:31:05.144Z,97766.56
2023-04-28T17:34:06.810Z,97772.78
2023-04-28T17:37:08.577Z,97765.59
2023-04-28T17:40:10.848Z,97764.75
2023-04-28T17:43:12.517Z,97766.44
2023-04-28T17:46:16.100Z,97764.53
2023-04-28T17:49:17.730Z,97760.13
2023-04-28T17:52:20.153Z,97763.88
2023-04-28T17:55:21.695Z,97773.72
2023-04-28T17:58:23.680Z,97769.97
2023-04-28T18:01:26.826Z,97778.88
2023-04-28T18:04:29.636Z,97780.81
2023-04-28T18:07:32.063Z,97779.09
2023-04-28T18:10:33.842Z,97781.75
2023-04-28T18:13:35.664Z,97774.69
2023-04-28T18:16:38.828Z,97784.44
2023-04-28T18:19:40.559Z,97777.16
2023-04-28T18:22:42.260Z,97780.56
2023-04-28T18:25:44.087Z,97771.63
2023-04-28T18:28:46.456Z,97775.03
2023-04-28T18:31:49.432Z,97773.22
2023-04-28T18:34:51.492Z,97770.44
2023-04-28T18:37:53.738Z,97775.78
2023-04-28T18:40:55.588Z,97783.81
2023-04-28T18:43:58.376Z,97776.41
2023-04-28T18:47:01.310Z,97787.81
2023-04-28T18:50:03.158Z,97784.16
2023-04-28T18:53:05.065Z,97791.34
2023-04-28T18:56:06.794Z,97789.63
2023-04-28T18:59:09.409Z,97795.38
2023-04-28T19:02:12.925Z,97797.97
2023-04-28T19:05:14.579Z,97808.78
2023-04-28T19:08:16.255Z,97812.75
2023-04-28T19:11:17.974Z,97814.00
2023-04-28T19:14:22.429Z,97819.69
2023-04-28T19:17:25.861Z,97833.25
2023-04-28T19:20:27.714Z,97831.75
2023-04-28T19:23:30.433Z,97837.50
2023-04-28T19:26:32.086Z,97842.44
2023-04-28T19:29:33.691Z,97850.13
2023-04-28T19:32:37.096Z,97845.38
2023-04-28T19:35:39.567Z,97853.06
2023-04-28T19:38:41.300Z,97854.31
2023-04-28T19:41:42.839Z,97859.88
2023-04-28T19:44:44.730Z,97852.44
2023-04-28T19:47:47.670Z,97860.84
2023-04-28T19:50:49.493Z,97859.19
2023-04-28T19:53:52.443Z,97857.47
2023-04-28T19:56:54.838Z,97861.13
2023-04-28T19:59:56.440Z,97857.47
2023-04-28T20:02:59.860Z,97861.00
2023-04-28T20:06:02.196Z,97863.78
2023-04-28T20:09:05.426Z,97869.03
2023-04-28T20:12:08.613Z,97863.63
2023-04-28T20:15:10.472Z,97857.38
2023-04-28T20:18:13.547Z,97860.75
2023-04-28T20:21:17.414Z,97859.03
2023-04-28T20:24:19.132Z,97859.97
2023-04-28T20:27:21.903Z,97865.34
2023-04-28T20:30:23.931Z,97856.44
2023-04-28T20:33:27.031Z,97845.84
2023-04-28T20:36:29.438Z,97851.19
2023-04-28T20:39:31.116Z,97852.94
2023-04-28T20:42:33.417Z,97861.00
2023-04-28T20:45:35.172Z,97853.09
2023-04-28T20:48:38.333Z,97862.94
2023-04-28T20:51:44.390Z,97854.16
2023-04-28T20:54:47.015Z,97861.31
2023-04-28T20:57:48.609Z,97860.38
2023-04-28T21:00:50.539Z,97852.44
2023-04-28T21:03:53.837Z,97854.25
2023-04-28T21:06:56.055Z,97854.34
2023-04-28T21:09:58.155Z,97859.69
2023-04-28T21:12:59.764Z,97859.78
2023-04-28T21:16:01.769Z,97853.69
2023-04-28T21:19:04.773Z,97858.19
2023-04-28T21:22:06.344Z,97856.47
2023-04-28T21:25:08.719Z,97860.94
2023-04-28T21:28:10.906Z,97864.59
2023-04-28T21:31:12.456Z,97856.72
2023-04-28T21:34:17.414Z,97857.91
2023-04-28T21:37:19.038Z,97859.91
2023-04-28T21:40:20.742Z,97861.91
2023-04-28T21:43:24.128Z,97865.53
2023-04-28T21:46:25.879Z,97861.16
2023-04-28T21:49:29.020Z,97861.25
2023-04-28T21:52:30.943Z,97872.03
2023-04-28T21:55:32.632Z,97859.63
2023-04-28T21:58:35.824Z,97861.44
2023-04-28T22:01:41.762Z,97864.13
2023-04-28T22:04:44.928Z,97861.44
2023-04-28T22:07:46.623Z,97857.94
2023-04-28T22:10:48.363Z,97864.22
2023-04-28T22:13:50.034Z,97865.19
2023-04-28T22:16:51.572Z,97870.53
2023-04-28T22:19:54.706Z,97871.50
2023-04-28T22:22:57.630Z,97875.03
2023-04-28T22:26:00.030Z,97881.28
2023-04-28T22:29:02.385Z,97872.41
2023-04-28T22:32:04.656Z,97874.22
2023-04-28T22:35:08.693Z,97874.44
2023-04-28T22:38:10.426Z,97879.13
2023-04-28T22:41:12.054Z,97880.06
2023-04-28T22:44:14.004Z,97873.00
2023-04-28T22:47:18.602Z,97873.94
2023-04-28T22:50:21.742Z,97876.72
2023-04-28T22:53:23.464Z,97876.81
2023-04-28T22:56:25.828Z,97880.34
2023-04-28T22:59:27.657Z,97875.84
2023-04-28T23:02:30.017Z,97875.00
2023-04-28T23:05:36.565Z,97877.78
2023-04-28T23:08:38.180Z,97882.25
2023-04-28T23:11:39.740Z,97874.34
2023-04-28T23:14:41.817Z,97869.09
2023-04-28T23:17:43.502Z,97870.91
2023-04-28T23:20:50.151Z,97868.34
2023-04-28T23:23:51.933Z,97873.75
2023-04-28T23:26:53.586Z,97882.72
2023-04-28T23:29:55.202Z,97882.25
2023-04-28T23:32:57.182Z,97885.09
2023-04-28T23:36:00.418Z,97883.38
2023-04-28T23:42:31.418Z,97887.56
2023-04-28T23:45:33.071Z,97885.09
2023-04-28T23:48:35.092Z,97881.00
2023-04-28T23:51:38.328Z,97888.22
2023-04-28T23:54:40.798Z,97882.19
2023-04-28T23:57:42.433Z,97892.13
